Time;durP1;ratioP1;P1;durP2;ratioP2;P2;SDS_P1;SDS_P2;PMS_P1;PMS_P2;Temp;Humidity;BMP_temperature;BMP_pressure;BME280_temperature;BME280_humidity;BME280_pressure;Samples;Min_cycle;Max_cycle;Signal;HPM_P1;HPM_P2
2021/01/19 00:02:24;;;;;;;4.03;3.40;;;2.30;99.90;;;;;;5042415;28;20626;-96
2021/01/19 00:04:54;;;;;;;6.47;4.60;;;2.30;99.90;;;;;;5057298;28;20661;-95
2021/01/19 00:07:21;;;;;;;6.53;4.80;;;2.30;99.90;;;;;;5079290;28;20626;-95
2021/01/19 00:09:53;;;;;;;6.00;4.50;;;2.20;99.90;;;;;;5065382;28;20670;-94
2021/01/19 00:12:20;;;;;;;5.20;3.10;;;2.10;99.90;;;;;;5058984;28;20751;-95
2021/01/19 00:14:46;;;;;;;3.23;2.90;;;2.10;99.90;;;;;;5052088;28;20634;-95
2021/01/19 00:17:14;;;;;;;2.43;2.23;;;2.10;99.90;;;;;;5050826;28;20634;-94
2021/01/19 00:19:40;;;;;;;2.70;2.47;;;2.10;99.90;;;;;;5047036;28;20656;-95
2021/01/19 00:22:08;;;;;;;2.70;2.50;;;2.10;99.90;;;;;;5053568;28;20658;-94
2021/01/19 00:24:35;;;;;;;6.20;4.53;;;2.10;99.90;;;;;;5051182;28;20660;-94
2021/01/19 00:27:02;;;;;;;6.87;5.50;;;2.20;99.90;;;;;;5046971;28;20649;-94
2021/01/19 00:30:04;;;;;;;7.07;5.23;;;2.20;99.90;;;;;;5061970;28;20649;-95
2021/01/19 00:35:14;;;;;;;6.77;5.27;;;2.20;99.90;;;;;;5077921;28;20625;-96
2021/01/19 00:37:47;;;;;;;3.63;3.33;;;2.10;99.90;;;;;;5076848;28;20621;-96
2021/01/19 00:40:27;;;;;;;7.03;4.93;;;2.20;99.90;;;;;;5058805;28;20697;-96
2021/01/19 00:43:05;;;;;;;9.57;8.30;;;2.20;99.90;;;;;;5064157;28;20644;-96
2021/01/19 00:45:38;;;;;;;3.63;3.30;;;2.20;99.90;;;;;;5077404;28;20721;-95
2021/01/19 00:48:17;;;;;;;7.30;4.33;;;2.10;99.90;;;;;;5075777;28;20626;-96
2021/01/19 01:04:00;;;;;;;5.73;2.80;;;2.40;99.90;;;;;;5067038;28;20663;-95
2021/01/19 01:06:26;;;;;;;2.40;2.20;;;2.30;99.90;;;;;;5076308;28;20616;-95
2021/01/19 01:08:53;;;;;;;2.20;2.00;;;2.60;99.90;;;;;;5079779;28;20726;-94
2021/01/19 01:11:37;;;;;;;3.90;2.90;;;2.40;99.90;;;;;;5063308;28;20689;-94
2021/01/19 01:14:04;;;;;;;3.33;2.23;;;2.90;99.90;;;;;;5068358;28;20663;-94
2021/01/19 01:16:32;;;;;;;2.50;2.17;;;2.40;99.90;;;;;;5030646;28;20654;-94
2021/01/19 01:19:13;;;;;;;3.20;2.03;;;2.50;99.90;;;;;;5067612;28;20621;-95
2021/01/19 01:21:40;;;;;;;4.70;2.37;;;2.40;99.90;;;;;;5061389;28;20622;-95
2021/01/19 01:24:08;;;;;;;3.07;2.30;;;2.40;99.90;;;;;;5061492;28;20639;-95
2021/01/19 01:26:35;;;;;;;2.57;2.13;;;2.30;99.90;;;;;;5063931;28;20632;-94
2021/01/19 01:31:37;;;;;;;4.40;2.47;;;2.30;99.90;;;;;;5893267;23;20700;-95
2021/01/19 01:34:05;;;;;;;3.60;2.20;;;2.10;99.90;;;;;;5054054;28;21005;-96
2021/01/19 01:36:39;;;;;;;4.70;3.00;;;2.30;99.90;;;;;;5056778;28;20666;-96
2021/01/19 01:39:06;;;;;;;7.07;2.73;;;1.90;99.90;;;;;;5058815;28;20641;-93
2021/01/19 01:41:33;;;;;;;3.10;2.40;;;2.60;99.90;;;;;;5065808;28;20666;-95
2021/01/19 01:44:02;;;;;;;4.53;2.50;;;1.80;99.90;;;;;;5069912;28;20680;-95
2021/01/19 01:46:31;;;;;;;2.87;2.67;;;1.80;99.90;;;;;;5068381;28;20629;-94
2021/01/19 01:48:58;;;;;;;4.23;2.80;;;1.90;99.90;;;;;;5054773;28;20657;-95
2021/01/19 01:51:34;;;;;;;3.70;2.07;;;1.90;99.90;;;;;;5062302;28;20661;-95
2021/01/19 01:54:03;;;;;;;2.87;2.53;;;1.80;99.90;;;;;;5056407;28;20756;-95
2021/01/19 01:56:30;;;;;;;2.87;2.60;;;1.90;99.90;;;;;;5058105;28;21168;-95
2021/01/19 01:58:58;;;;;;;5.53;2.67;;;1.70;99.90;;;;;;5057353;28;20761;-95
2021/01/19 02:01:26;;;;;;;2.70;2.37;;;1.60;99.90;;;;;;5056712;28;21336;-94
2021/01/19 02:03:54;;;;;;;3.70;2.20;;;1.90;99.90;;;;;;5056126;28;20670;-94
2021/01/19 02:06:22;;;;;;;4.53;2.77;;;1.60;99.90;;;;;;5051717;28;20650;-95
2021/01/19 02:09:05;;;;;;;2.83;2.60;;;1.60;99.90;;;;;;5052213;28;20686;-96
2021/01/19 02:11:47;;;;;;;4.20;2.40;;;1.50;99.90;;;;;;5059132;28;20684;-95
2021/01/19 02:14:22;;;;;;;2.70;1.93;;;1.60;99.90;;;;;;5069497;28;21260;-94
2021/01/19 02:17:02;;;;;;;3.70;2.57;;;1.50;99.90;;;;;;5053987;28;20672;-95
2021/01/19 02:20:12;;;;;;;2.83;2.20;;;2.00;99.90;;;;;;5050049;28;21076;-95
2021/01/19 02:23:05;;;;;;;3.63;2.70;;;1.40;99.90;;;;;;5054366;28;20650;-95
2021/01/19 02:25:54;;;;;;;3.03;2.50;;;1.50;99.90;;;;;;5050765;28;20638;-95
2021/01/19 02:28:27;;;;;;;2.57;2.33;;;1.50;99.90;;;;;;5055467;28;20659;-95
2021/01/19 02:31:22;;;;;;;3.00;2.70;;;1.60;99.90;;;;;;5045850;28;20669;-95
2021/01/19 02:34:09;;;;;;;2.83;2.57;;;1.30;99.90;;;;;;5054027;28;20618;-96
2021/01/19 02:36:52;;;;;;;5.53;2.60;;;1.30;99.90;;;;;;5052248;28;20617;-94
2021/01/19 02:39:29;;;;;;;3.20;2.73;;;1.30;99.90;;;;;;5055520;28;20650;-95
2021/01/19 02:42:05;;;;;;;3.57;2.77;;;1.50;99.90;;;;;;5061400;28;21289;-95
2021/01/19 02:44:38;;;;;;;3.83;3.00;;;1.40;99.90;;;;;;5056078;28;20672;-95
2021/01/19 02:47:06;;;;;;;3.73;2.50;;;1.30;99.90;;;;;;5054570;28;20650;-95
2021/01/19 02:49:35;;;;;;;3.60;2.47;;;1.30;99.90;;;;;;5049542;28;20729;-94
2021/01/19 02:52:02;;;;;;;2.87;2.33;;;1.00;99.90;;;;;;5051593;28;20960;-94
2021/01/19 02:54:33;;;;;;;3.63;2.80;;;0.80;99.90;;;;;;5050421;28;21040;-95
2021/01/19 02:57:09;;;;;;;5.23;2.37;;;0.70;99.90;;;;;;5050594;28;20630;-95
2021/01/19 02:59:49;;;;;;;3.70;3.13;;;1.00;99.90;;;;;;5051699;28;20665;-95
2021/01/19 03:02:30;;;;;;;6.37;2.87;;;0.80;99.90;;;;;;5061683;28;20769;-96
2021/01/19 03:05:01;;;;;;;3.67;2.90;;;0.80;99.90;;;;;;5050968;28;20652;-95
2021/01/19 03:07:29;;;;;;;3.90;3.30;;;1.30;99.90;;;;;;5061337;28;21248;-94
2021/01/19 03:10:04;;;;;;;4.00;2.77;;;0.90;99.90;;;;;;5046204;28;20684;-96
2021/01/19 03:12:35;;;;;;;3.37;2.83;;;1.10;99.90;;;;;;5291691;22;21877;-96
2021/01/19 03:22:10;;;;;;;4.10;2.80;;;1.00;99.90;;;;;;5043507;28;20558;-96
2021/01/19 03:24:37;;;;;;;4.13;3.23;;;1.10;99.90;;;;;;5049877;28;21186;-95
2021/01/19 03:27:19;;;;;;;3.33;2.90;;;1.10;99.90;;;;;;5025363;28;20647;-95
2021/01/19 03:30:02;;;;;;;2.40;2.23;;;1.10;99.90;;;;;;5045219;28;20627;-94
2021/01/19 03:36:23;;;;;;;4.53;2.33;;;1.10;99.90;;;;;;5055073;28;20574;-95
2021/01/19 03:38:55;;;;;;;3.53;3.23;;;1.10;99.90;;;;;;5058870;28;20626;-94
2021/01/19 03:41:25;;;;;;;5.33;3.03;;;1.10;99.90;;;;;;5037410;28;21062;-95
2021/01/19 03:43:51;;;;;;;3.43;2.60;;;1.80;99.90;;;;;;5041246;28;20710;-94
2021/01/19 03:46:18;;;;;;;5.90;3.00;;;1.20;99.90;;;;;;5034192;28;20712;-94
2021/01/19 03:48:45;;;;;;;3.33;2.83;;;1.30;99.90;;;;;;5037221;28;20733;-93
2021/01/19 03:51:13;;;;;;;3.40;3.10;;;1.40;99.90;;;;;;5046247;28;20673;-95
2021/01/19 03:53:41;;;;;;;2.63;2.33;;;1.50;99.90;;;;;;5044678;28;20679;-94
2021/01/19 03:56:25;;;;;;;5.03;3.23;;;1.40;99.90;;;;;;5056682;28;20642;-96
2021/01/19 04:01:56;;;;;;;4.33;2.60;;;1.40;99.90;;;;;;5051534;28;20634;-95
2021/01/19 04:04:34;;;;;;;4.50;3.17;;;1.40;99.90;;;;;;5040646;28;20661;-95
2021/01/19 04:07:01;;;;;;;3.60;2.97;;;1.50;99.90;;;;;;5055284;28;20675;-96
2021/01/19 04:09:31;;;;;;;5.40;3.13;;;1.40;99.90;;;;;;5043061;28;20631;-95
2021/01/19 04:12:14;;;;;;;3.20;3.00;;;1.30;99.90;;;;;;5046879;28;21099;-95
2021/01/19 04:14:49;;;;;;;3.50;2.67;;;1.40;99.90;;;;;;5043845;28;20718;-95
2021/01/19 04:17:16;;;;;;;4.07;2.80;;;1.50;99.90;;;;;;5047508;28;20631;-96
2021/01/19 04:19:43;;;;;;;4.70;2.93;;;1.60;99.90;;;;;;5047657;28;20666;-96
2021/01/19 04:22:10;;;;;;;4.20;2.77;;;1.60;99.90;;;;;;5042301;28;20630;-93
2021/01/19 04:24:38;;;;;;;3.53;2.93;;;1.60;99.90;;;;;;5038809;28;20787;-95
2021/01/19 04:27:05;;;;;;;4.57;2.73;;;1.50;99.90;;;;;;5047655;28;20638;-94
2021/01/19 04:29:36;;;;;;;3.00;2.30;;;1.60;99.90;;;;;;5054068;28;20665;-94
2021/01/19 04:32:06;;;;;;;3.00;2.70;;;1.40;99.90;;;;;;5057054;28;20685;-95
2021/01/19 04:34:38;;;;;;;2.67;2.47;;;1.50;99.90;;;;;;5040781;28;20650;-96
2021/01/19 04:40:08;;;;;;;2.90;2.60;;;1.50;99.90;;;;;;5037990;28;20629;-95
2021/01/19 04:42:36;;;;;;;4.87;3.50;;;1.40;99.90;;;;;;5045536;28;20716;-94
2021/01/19 04:45:05;;;;;;;5.57;2.87;;;1.30;99.90;;;;;;5039632;28;20682;-93
2021/01/19 04:47:32;;;;;;;4.80;2.90;;;1.20;99.90;;;;;;5032869;28;20634;-93
2021/01/19 04:50:00;;;;;;;3.67;2.60;;;1.20;99.90;;;;;;5020786;28;20662;-93
2021/01/19 04:52:34;;;;;;;4.70;3.20;;;1.20;99.90;;;;;;5044606;28;20662;-95
2021/01/19 04:55:06;;;;;;;3.43;3.10;;;1.50;99.90;;;;;;5043707;28;20658;-95
2021/01/19 04:57:34;;;;;;;3.43;2.67;;;1.20;99.90;;;;;;5038001;28;20653;-95
2021/01/19 05:00:05;;;;;;;3.57;2.93;;;1.20;99.90;;;;;;5042053;28;20761;-96
2021/01/19 05:02:37;;;;;;;4.20;3.17;;;1.50;99.90;;;;;;5039591;28;20640;-95
2021/01/19 05:08:26;;;;;;;4.43;3.00;;;1.20;99.90;;;;;;5050779;28;20641;-96
2021/01/19 05:14:05;;;;;;;6.90;3.73;;;1.60;99.90;;;;;;5043727;28;21201;-96
2021/01/19 05:19:21;;;;;;;3.50;2.87;;;1.10;99.90;;;;;;5059429;28;20659;-96
2021/01/19 05:22:01;;;;;;;5.40;3.10;;;1.10;99.90;;;;;;5065382;28;20645;-95
2021/01/19 05:25:15;;;;;;;4.97;3.63;;;1.10;99.90;;;;;;5071005;28;20717;-96
2021/01/19 05:27:58;;;;;;;6.23;3.13;;;1.20;99.90;;;;;;5047371;28;20661;-96
2021/01/19 05:30:31;;;;;;;2.67;2.47;;;1.10;99.90;;;;;;5066407;28;20627;-96
2021/01/19 05:32:59;;;;;;;3.40;3.10;;;1.40;99.90;;;;;;5059837;28;20683;-96
2021/01/19 05:35:28;;;;;;;5.20;3.60;;;1.40;99.90;;;;;;5055365;28;20629;-96
2021/01/19 05:38:00;;;;;;;5.17;3.10;;;1.20;99.90;;;;;;5056647;28;21011;-96
2021/01/19 05:41:01;;;;;;;3.30;2.90;;;1.60;99.90;;;;;;5057586;28;20657;-96
2021/01/19 05:43:28;;;;;;;4.20;2.93;;;1.20;99.90;;;;;;5060909;28;20673;-95
2021/01/19 05:46:01;;;;;;;3.97;2.93;;;1.80;99.90;;;;;;5062741;28;21045;-95
2021/01/19 06:23:20;;;;;;;5.37;4.20;;;1.10;99.90;;;;;;5078672;28;20647;-95
2021/01/19 06:26:05;;;;;;;3.83;3.40;;;1.10;99.90;;;;;;5077442;28;20612;-95
2021/01/19 06:28:43;;;;;;;3.50;3.10;;;1.00;99.90;;;;;;5057895;28;20670;-95
2021/01/19 06:31:21;;;;;;;5.30;3.60;;;1.00;99.90;;;;;;5053957;28;20678;-95
2021/01/19 06:33:53;;;;;;;4.73;3.30;;;1.00;99.90;;;;;;5049075;28;20723;-94
2021/01/19 06:36:22;;;;;;;3.60;3.30;;;0.90;99.90;;;;;;5049480;28;20643;-95
2021/01/19 06:38:56;;;;;;;7.53;4.27;;;1.00;99.90;;;;;;5054629;28;20664;-94
2021/01/19 06:47:49;;;;;;;5.23;3.93;;;1.00;99.90;;;;;;5046826;28;21185;-94
2021/01/19 06:50:21;;;;;;;5.53;3.83;;;0.90;99.90;;;;;;5048235;28;20627;-94
2021/01/19 06:53:13;;;;;;;3.90;3.30;;;0.90;99.90;;;;;;5048290;28;20674;-94
2021/01/19 06:56:00;;;;;;;3.70;3.20;;;1.00;99.90;;;;;;5056705;28;20638;-95
2021/01/19 06:58:46;;;;;;;3.80;3.33;;;0.90;99.90;;;;;;5062052;28;20647;-95
2021/01/19 07:01:19;;;;;;;5.93;3.80;;;0.80;99.90;;;;;;5047945;28;20745;-94
2021/01/19 07:07:05;;;;;;;4.73;4.00;;;0.70;99.90;;;;;;5050885;28;20623;-95
2021/01/19 07:10:05;;;;;;;4.30;3.73;;;0.60;99.90;;;;;;5049563;28;20677;-95
2021/01/19 07:13:01;;;;;;;6.00;4.43;;;0.60;99.90;;;;;;5059018;28;20665;-95
2021/01/19 07:16:07;;;;;;;4.30;3.90;;;0.60;99.90;;;;;;5055726;28;21277;-95
2021/01/19 07:19:09;;;;;;;4.07;3.60;;;0.70;99.90;;;;;;5047192;28;20665;-96
2021/01/19 07:22:08;;;;;;;4.87;4.03;;;0.50;99.90;;;;;;5049623;28;20678;-95
2021/01/19 07:24:42;;;;;;;11.60;4.03;;;0.60;99.90;;;;;;5047059;28;21180;-96
2021/01/19 07:27:11;;;;;;;6.70;4.00;;;0.80;99.90;;;;;;5049951;28;20628;-94
2021/01/19 07:29:47;;;;;;;8.50;7.60;;;0.50;99.90;;;;;;5057742;28;20669;-93
2021/01/19 07:32:24;;;;;;;4.90;4.10;;;0.50;99.90;;;;;;5050399;28;20701;-96
2021/01/19 07:53:09;;;;;;;5.20;4.70;;;0.60;99.90;;;;;;5124215;22;20670;-94
2021/01/19 07:55:46;;;;;;;7.70;4.40;;;0.60;99.90;;;;;;5049549;28;20646;-94
2021/01/19 07:58:17;;;;;;;7.13;4.90;;;0.60;99.90;;;;;;5065985;28;20730;-93
2021/01/19 08:00:48;;;;;;;5.40;4.57;;;0.70;99.90;;;;;;5069146;28;20705;-94
2021/01/19 08:03:26;;;;;;;5.57;4.43;;;0.70;99.90;;;;;;5071983;28;21204;-91
2021/01/19 08:05:53;;;;;;;5.33;3.87;;;1.10;99.90;;;;;;5069039;28;20625;-93
2021/01/19 08:08:22;;;;;;;4.90;4.23;;;0.90;99.90;;;;;;5074845;28;20625;-93
2021/01/19 08:11:00;;;;;;;4.40;4.03;;;1.00;99.90;;;;;;5070808;28;20645;-92
2021/01/19 08:13:29;;;;;;;6.90;5.20;;;1.10;99.90;;;;;;5071332;28;20697;-94
2021/01/19 08:16:03;;;;;;;6.97;4.70;;;1.30;99.90;;;;;;5071607;28;20625;-92
2021/01/19 08:18:40;;;;;;;10.17;6.03;;;1.20;99.90;;;;;;5048796;28;20767;-91
2021/01/19 08:21:08;;;;;;;7.13;5.40;;;1.30;99.90;;;;;;5068417;28;20675;-90
2021/01/19 08:23:35;;;;;;;6.27;4.37;;;1.50;99.90;;;;;;5065257;28;21042;-89
2021/01/19 08:26:06;;;;;;;7.97;5.30;;;1.60;99.90;;;;;;5061315;28;20892;-92
2021/01/19 08:28:33;;;;;;;6.90;5.30;;;1.70;99.90;;;;;;5063049;28;20639;-89
2021/01/19 08:30:59;;;;;;;7.97;3.90;;;2.00;99.90;;;;;;5051386;28;20668;-90
2021/01/19 08:33:26;;;;;;;5.97;4.57;;;2.00;99.90;;;;;;5045099;28;20663;-90
2021/01/19 08:35:57;;;;;;;7.30;4.50;;;2.20;99.90;;;;;;5067889;28;20701;-91
2021/01/19 08:38:24;;;;;;;7.10;3.93;;;2.20;99.90;;;;;;5066016;28;20634;-90
2021/01/19 08:40:51;;;;;;;5.83;4.03;;;2.40;99.90;;;;;;5063678;28;20640;-90
2021/01/19 08:43:20;;;;;;;5.50;3.93;;;2.50;99.90;;;;;;5064826;28;21247;-89
2021/01/19 08:45:46;;;;;;;4.80;4.03;;;2.40;99.90;;;;;;5062459;28;20680;-90
2021/01/19 08:48:13;;;;;;;7.23;4.93;;;2.70;99.90;;;;;;5063916;28;20662;-91
2021/01/19 08:50:40;;;;;;;4.70;4.00;;;2.90;99.90;;;;;;5063737;28;20981;-90
2021/01/19 08:53:08;;;;;;;5.40;4.40;;;2.90;99.90;;;;;;5061296;28;20964;-89
2021/01/19 08:55:35;;;;;;;4.47;4.07;;;2.90;99.90;;;;;;5029446;28;20675;-91
2021/01/19 08:58:02;;;;;;;4.00;3.60;;;2.80;99.90;;;;;;5051030;28;20622;-90
2021/01/19 09:00:30;;;;;;;5.97;4.43;;;2.80;99.90;;;;;;5047809;28;20629;-90
2021/01/19 09:02:58;;;;;;;4.97;4.47;;;2.60;99.90;;;;;;5062404;28;20645;-90
2021/01/19 09:05:31;;;;;;;5.10;4.13;;;2.70;99.90;;;;;;5048562;28;20671;-90
2021/01/19 09:07:58;;;;;;;4.50;3.60;;;2.90;99.90;;;;;;5064550;28;20963;-90
2021/01/19 09:10:28;;;;;;;5.17;3.57;;;3.00;99.90;;;;;;5063575;28;20679;-89
2021/01/19 09:12:57;;;;;;;5.13;3.97;;;3.20;99.90;;;;;;5062792;28;20668;-89
2021/01/19 09:15:27;;;;;;;5.53;4.13;;;3.20;99.90;;;;;;5067230;28;21263;-90
2021/01/19 09:17:55;;;;;;;7.43;3.70;;;3.00;99.90;;;;;;5069107;28;20648;-89
2021/01/19 09:20:23;;;;;;;4.70;4.30;;;2.80;99.90;;;;;;5070600;28;20974;-89
2021/01/19 09:22:50;;;;;;;5.83;4.33;;;2.80;99.90;;;;;;5068934;28;20640;-89
2021/01/19 09:25:19;;;;;;;5.10;4.47;;;2.70;99.90;;;;;;5066691;28;20681;-89
2021/01/19 09:27:47;;;;;;;4.50;3.90;;;2.70;99.90;;;;;;5066769;28;20631;-88
2021/01/19 09:30:16;;;;;;;6.00;4.20;;;2.70;99.90;;;;;;5067472;28;21252;-91
2021/01/19 09:32:46;;;;;;;4.97;4.50;;;2.80;99.90;;;;;;5064357;28;20669;-90
2021/01/19 09:35:13;;;;;;;5.30;4.80;;;2.80;99.90;;;;;;5066330;28;20752;-91
2021/01/19 09:37:41;;;;;;;4.60;3.87;;;2.90;99.90;;;;;;5065936;28;20641;-91
2021/01/19 09:40:09;;;;;;;5.13;3.93;;;2.80;99.90;;;;;;5067433;28;20697;-91
2021/01/19 09:42:38;;;;;;;8.20;4.10;;;2.80;99.90;;;;;;5066200;28;20652;-91
2021/01/19 09:45:08;;;;;;;4.30;3.90;;;3.00;99.90;;;;;;5066308;28;20675;-91
2021/01/19 09:47:35;;;;;;;5.03;4.53;;;2.80;99.90;;;;;;5065059;28;20680;-91
2021/01/19 09:50:07;;;;;;;6.37;4.23;;;2.70;99.90;;;;;;5067644;28;20648;-91
2021/01/19 09:52:34;;;;;;;6.70;4.43;;;2.80;99.90;;;;;;5066918;28;20703;-90
2021/01/19 09:55:10;;;;;;;4.70;4.30;;;2.70;99.90;;;;;;5065963;28;21046;-91
2021/01/19 09:57:37;;;;;;;4.53;4.23;;;2.80;99.90;;;;;;5064667;28;20697;-92
2021/01/19 10:00:06;;;;;;;7.50;5.00;;;2.90;99.90;;;;;;5048726;28;20636;-91
2021/01/19 10:02:33;;;;;;;5.00;4.10;;;3.00;99.90;;;;;;5064665;28;20637;-91
2021/01/19 10:05:01;;;;;;;8.03;4.80;;;3.00;99.90;;;;;;5064611;28;20663;-90
2021/01/19 10:07:29;;;;;;;6.90;4.33;;;3.00;99.90;;;;;;5070141;28;20688;-91
2021/01/19 10:10:07;;;;;;;5.10;4.60;;;2.80;99.90;;;;;;5064258;28;20721;-91
2021/01/19 10:12:34;;;;;;;5.53;5.03;;;2.90;99.90;;;;;;5064761;28;20672;-91
2021/01/19 10:15:02;;;;;;;5.67;4.53;;;3.10;99.90;;;;;;5067568;28;20674;-91
2021/01/19 10:17:30;;;;;;;7.37;5.47;;;3.20;99.90;;;;;;5069892;28;20659;-91
2021/01/19 10:20:09;;;;;;;5.77;5.10;;;3.30;99.90;;;;;;5072407;28;21174;-91
2021/01/19 10:22:41;;;;;;;7.90;5.07;;;3.30;99.90;;;;;;5061564;28;21147;-92
2021/01/19 10:25:13;;;;;;;6.40;4.80;;;3.30;99.90;;;;;;5063275;28;21145;-91
2021/01/19 10:27:42;;;;;;;6.37;4.50;;;3.30;99.90;;;;;;5067990;28;20634;-91
2021/01/19 10:30:10;;;;;;;5.07;4.50;;;3.30;99.90;;;;;;5068146;28;20644;-90
2021/01/19 10:32:48;;;;;;;7.90;5.10;;;3.20;99.90;;;;;;5071547;28;20682;-91
2021/01/19 10:35:26;;;;;;;4.50;4.07;;;3.30;99.90;;;;;;5071174;28;20675;-90
2021/01/19 10:37:57;;;;;;;7.30;4.80;;;3.40;99.90;;;;;;5076540;28;20617;-90
2021/01/19 10:40:25;;;;;;;6.70;4.80;;;3.50;99.90;;;;;;5067454;28;20727;-90
2021/01/19 10:42:52;;;;;;;5.73;5.00;;;3.60;99.90;;;;;;5065399;28;20645;-91
2021/01/19 10:45:24;;;;;;;4.80;4.30;;;3.60;99.90;;;;;;5042745;28;20708;-91
2021/01/19 10:47:51;;;;;;;8.60;5.67;;;3.50;99.90;;;;;;5065116;28;20652;-91
2021/01/19 10:50:18;;;;;;;7.00;4.60;;;3.60;99.90;;;;;;5047822;28;20632;-91
2021/01/19 10:52:53;;;;;;;6.60;4.97;;;3.60;99.90;;;;;;5063323;28;21315;-91
2021/01/19 10:55:21;;;;;;;5.30;4.77;;;3.60;99.90;;;;;;5069471;28;21275;-92
2021/01/19 10:57:48;;;;;;;5.30;4.87;;;3.60;99.90;;;;;;5065062;28;20652;-93
2021/01/19 11:00:16;;;;;;;9.63;5.73;;;3.40;99.90;;;;;;5069381;28;20700;-93
2021/01/19 11:02:43;;;;;;;5.63;4.53;;;3.50;99.90;;;;;;5048528;28;20978;-92
2021/01/19 11:05:11;;;;;;;7.00;4.77;;;3.40;99.90;;;;;;5067389;28;20683;-92
2021/01/19 11:07:37;;;;;;;6.43;5.70;;;3.40;99.90;;;;;;5068547;28;21051;-92
2021/01/19 11:10:04;;;;;;;9.17;7.57;;;3.60;99.90;;;;;;5066653;28;20792;-93
2021/01/19 11:12:31;;;;;;;6.33;4.90;;;3.50;99.90;;;;;;5068798;28;21270;-93
2021/01/19 11:14:59;;;;;;;9.73;7.70;;;3.70;99.90;;;;;;5066931;28;20711;-92
2021/01/19 11:17:27;;;;;;;6.77;5.53;;;3.70;99.90;;;;;;5066543;28;20672;-92
2021/01/19 11:19:55;;;;;;;10.70;7.30;;;3.70;99.90;;;;;;5069808;28;20636;-92
2021/01/19 11:22:22;;;;;;;5.83;5.27;;;3.60;99.90;;;;;;5068724;28;20648;-91
2021/01/19 11:24:49;;;;;;;9.53;6.03;;;3.50;99.90;;;;;;5066054;28;20684;-93
2021/01/19 11:27:15;;;;;;;10.70;6.53;;;3.70;99.90;;;;;;5066223;28;20644;-93
2021/01/19 11:29:43;;;;;;;9.83;5.90;;;3.60;99.90;;;;;;5049827;28;20644;-93
2021/01/19 11:32:09;;;;;;;7.33;6.27;;;3.80;99.90;;;;;;5065134;28;21210;-93
2021/01/19 11:34:35;;;;;;;5.40;4.90;;;3.70;99.90;;;;;;5065349;28;20668;-93
2021/01/19 11:37:02;;;;;;;5.87;5.27;;;3.80;99.90;;;;;;5066155;28;21194;-93
2021/01/19 11:39:29;;;;;;;6.30;5.13;;;3.80;99.90;;;;;;5067716;28;20641;-92
2021/01/19 11:41:55;;;;;;;10.13;6.07;;;3.70;99.90;;;;;;5065236;28;20675;-93
2021/01/19 11:44:24;;;;;;;7.50;6.17;;;3.90;99.90;;;;;;5066622;28;20616;-92
2021/01/19 11:46:51;;;;;;;7.57;5.90;;;3.90;99.90;;;;;;5070092;28;20633;-92
2021/01/19 11:49:19;;;;;;;5.90;5.23;;;3.70;99.90;;;;;;5063019;28;20696;-93
2021/01/19 11:51:47;;;;;;;4.87;4.47;;;3.80;99.90;;;;;;5065112;28;20680;-92
2021/01/19 11:54:15;;;;;;;7.70;5.20;;;3.80;99.90;;;;;;5067720;28;21050;-93
2021/01/19 11:56:46;;;;;;;6.30;5.13;;;3.90;99.90;;;;;;5066049;28;20646;-92
2021/01/19 11:59:12;;;;;;;7.40;4.83;;;3.90;99.90;;;;;;5064748;28;20644;-92
2021/01/19 12:01:39;;;;;;;7.77;4.90;;;3.90;99.90;;;;;;5066532;28;20633;-93
2021/01/19 12:04:08;;;;;;;6.83;4.17;;;3.90;99.90;;;;;;5066555;28;20651;-93
2021/01/19 12:06:35;;;;;;;5.20;4.23;;;3.90;99.90;;;;;;5066588;28;20661;-93
2021/01/19 12:09:05;;;;;;;8.50;5.43;;;3.90;99.90;;;;;;5064276;28;20647;-92
2021/01/19 12:11:33;;;;;;;4.43;4.03;;;3.90;99.90;;;;;;5062778;28;21301;-93
2021/01/19 12:14:00;;;;;;;5.87;4.50;;;4.00;99.90;;;;;;5053437;28;20641;-92
2021/01/19 12:16:27;;;;;;;9.73;6.20;;;4.00;99.90;;;;;;5066650;28;20676;-93
2021/01/19 12:18:53;;;;;;;6.70;3.80;;;4.10;99.90;;;;;;5064335;28;20634;-92
2021/01/19 12:21:20;;;;;;;6.67;5.00;;;4.30;99.90;;;;;;5062327;28;20688;-91
2021/01/19 12:23:48;;;;;;;5.70;4.40;;;4.60;99.90;;;;;;5065502;28;20629;-92
2021/01/19 12:26:15;;;;;;;8.23;4.57;;;4.70;99.90;;;;;;5066347;28;20710;-92
2021/01/19 12:28:42;;;;;;;8.10;4.80;;;4.70;99.90;;;;;;5065421;28;20652;-90
2021/01/19 12:31:10;;;;;;;7.23;3.80;;;4.70;99.90;;;;;;5064126;28;20629;-90
2021/01/19 12:33:39;;;;;;;4.40;3.10;;;4.80;99.90;;;;;;5068492;28;20857;-91
2021/01/19 12:36:05;;;;;;;2.60;2.40;;;5.00;99.90;;;;;;5065968;28;20669;-89
2021/01/19 12:38:36;;;;;;;4.50;3.13;;;5.10;99.90;;;;;;5068893;28;20621;-89
2021/01/19 12:41:04;;;;;;;2.63;2.40;;;5.10;99.90;;;;;;5063409;28;20640;-88
2021/01/19 12:43:32;;;;;;;3.53;2.80;;;5.10;99.90;;;;;;5061307;28;21196;-87
2021/01/19 12:45:58;;;;;;;5.00;2.77;;;5.20;99.80;;;;;;5060640;28;20653;-87
2021/01/19 12:48:25;;;;;;;5.53;2.50;;;5.30;99.90;;;;;;5063863;28;20629;-87
2021/01/19 12:51:00;;;;;;;11.50;3.40;;;5.30;99.90;;;;;;5062238;28;20692;-88
2021/01/19 12:53:28;;;;;;;3.90;3.27;;;5.40;99.70;;;;;;5060290;28;20692;-87
2021/01/19 12:55:55;;;;;;;2.73;2.50;;;5.30;99.70;;;;;;5062696;28;20675;-88
2021/01/19 12:58:22;;;;;;;4.00;3.00;;;5.40;99.70;;;;;;5063061;28;20636;-87
2021/01/19 13:00:50;;;;;;;3.80;2.50;;;5.40;99.90;;;;;;5061847;28;20744;-88
2021/01/19 13:03:16;;;;;;;2.00;1.80;;;5.30;99.90;;;;;;5062693;28;21046;-88
2021/01/19 13:05:42;;;;;;;3.87;2.53;;;5.40;99.90;;;;;;5041920;28;20681;-88
2021/01/19 13:08:09;;;;;;;4.83;2.13;;;5.30;99.90;;;;;;5060374;28;20634;-87
2021/01/19 13:10:35;;;;;;;2.30;2.10;;;5.40;99.90;;;;;;5063172;28;20656;-87
2021/01/19 13:13:03;;;;;;;3.43;2.30;;;5.40;99.90;;;;;;5040232;28;20670;-89
2021/01/19 13:15:29;;;;;;;3.83;2.00;;;5.40;99.90;;;;;;5063289;28;20700;-89
2021/01/19 13:17:55;;;;;;;2.30;2.10;;;5.40;99.90;;;;;;5061235;28;20727;-88
2021/01/19 13:20:21;;;;;;;4.57;2.93;;;5.50;99.90;;;;;;5062427;28;20629;-87
2021/01/19 13:22:48;;;;;;;4.83;2.37;;;5.50;99.90;;;;;;5060782;28;20689;-89
2021/01/19 13:25:14;;;;;;;3.33;1.90;;;5.50;99.90;;;;;;5052148;28;20652;-88
2021/01/19 13:27:40;;;;;;;4.70;1.97;;;5.70;99.90;;;;;;5062548;28;20648;-88
2021/01/19 13:30:09;;;;;;;4.70;2.03;;;5.60;99.90;;;;;;5058179;28;20632;-88
2021/01/19 13:32:35;;;;;;;2.47;2.00;;;5.60;99.90;;;;;;5058017;28;20663;-88
2021/01/19 13:35:02;;;;;;;4.10;2.10;;;5.60;99.90;;;;;;5059294;28;20768;-88
2021/01/19 13:37:28;;;;;;;4.40;2.77;;;5.60;99.90;;;;;;5061864;28;20622;-89
2021/01/19 13:39:54;;;;;;;3.50;1.97;;;5.60;99.90;;;;;;5063805;28;20647;-88
2021/01/19 13:42:21;;;;;;;3.20;2.27;;;5.50;99.90;;;;;;5063333;28;20622;-88
2021/01/19 13:44:47;;;;;;;2.10;1.90;;;5.60;99.90;;;;;;5062674;28;20660;-89
2021/01/19 13:47:14;;;;;;;3.10;2.10;;;5.60;99.90;;;;;;5062557;28;20990;-88
2021/01/19 13:49:42;;;;;;;2.80;2.00;;;5.60;99.90;;;;;;5063732;28;21216;-88
2021/01/19 13:52:08;;;;;;;2.40;1.87;;;5.60;99.90;;;;;;5060570;28;20680;-90
2021/01/19 13:54:35;;;;;;;2.40;1.57;;;5.60;99.90;;;;;;5057115;28;21120;-88
2021/01/19 13:57:01;;;;;;;2.60;1.57;;;5.60;99.90;;;;;;5064930;28;21089;-89
2021/01/19 13:59:30;;;;;;;4.30;1.90;;;5.50;99.90;;;;;;5061027;28;21014;-89
2021/01/19 14:01:56;;;;;;;2.57;1.47;;;5.60;99.90;;;;;;5062972;28;20641;-86
2021/01/19 14:04:23;;;;;;;5.13;1.17;;;5.60;99.90;;;;;;5061273;28;20637;-87
2021/01/19 14:06:50;;;;;;;2.10;1.00;;;5.60;99.90;;;;;;5057853;28;20629;-88
2021/01/19 14:09:17;;;;;;;2.33;1.23;;;5.70;99.90;;;;;;5061638;28;20978;-88
2021/01/19 14:11:43;;;;;;;1.23;0.97;;;5.70;99.90;;;;;;5061110;28;20742;-88
2021/01/19 14:14:15;;;;;;;2.07;1.60;;;5.70;99.90;;;;;;5059442;28;20622;-87
2021/01/19 14:16:44;;;;;;;3.00;0.83;;;5.70;99.90;;;;;;5066800;28;20624;-88
2021/01/19 14:19:10;;;;;;;3.57;1.13;;;5.80;99.90;;;;;;5059574;28;20682;-88
2021/01/19 14:21:38;;;;;;;1.70;1.17;;;5.70;99.90;;;;;;5054573;28;21216;-88
2021/01/19 14:24:05;;;;;;;1.70;0.93;;;5.70;99.90;;;;;;5058700;28;20647;-88
2021/01/19 14:26:34;;;;;;;2.50;0.90;;;5.70;99.90;;;;;;5039655;28;21162;-88
2021/01/19 14:29:03;;;;;;;1.67;1.40;;;5.70;99.90;;;;;;5059981;28;20633;-89
2021/01/19 14:31:34;;;;;;;2.07;0.90;;;5.70;99.90;;;;;;5058191;28;20633;-88
2021/01/19 14:34:00;;;;;;;1.57;1.20;;;5.70;99.90;;;;;;5061636;28;21033;-88
2021/01/19 14:36:27;;;;;;;1.30;1.00;;;5.70;99.90;;;;;;5060378;28;20687;-88
2021/01/19 14:38:56;;;;;;;2.50;0.93;;;5.80;99.90;;;;;;5067056;28;20651;-88
2021/01/19 14:41:23;;;;;;;3.50;0.90;;;5.80;99.90;;;;;;5059701;28;20753;-88
2021/01/19 14:43:49;;;;;;;2.53;1.40;;;5.80;99.90;;;;;;5044604;28;20639;-87
2021/01/19 14:46:20;;;;;;;2.60;0.97;;;5.80;99.90;;;;;;5063464;28;20673;-87
2021/01/19 14:48:47;;;;;;;1.37;0.93;;;5.80;99.90;;;;;;5060227;28;20656;-87
2021/01/19 14:51:17;;;;;;;1.13;0.70;;;5.80;99.90;;;;;;5063162;28;20844;-89
2021/01/19 14:53:44;;;;;;;1.70;1.57;;;5.80;99.90;;;;;;5058231;28;20665;-88
2021/01/19 14:56:11;;;;;;;2.20;1.50;;;5.80;99.90;;;;;;5060480;28;20986;-88
2021/01/19 14:58:37;;;;;;;1.47;1.30;;;5.70;99.90;;;;;;5058466;28;20636;-87
2021/01/19 15:01:04;;;;;;;1.07;0.90;;;5.80;99.90;;;;;;5056798;28;20614;-88
2021/01/19 15:03:33;;;;;;;5.40;1.27;;;5.80;99.90;;;;;;5057875;28;20646;-88
2021/01/19 15:05:59;;;;;;;3.17;1.83;;;5.80;99.90;;;;;;5057795;28;20679;-89